Time;durP1;ratioP1;P1;durP2;ratioP2;P2;SDS_P1;SDS_P2;PMS_P1;PMS_P2;Temp;Humidity;BMP_temperature;BMP_pressure;BME280_temperature;BME280_humidity;BME280_pressure;Samples;Min_cycle;Max_cycle;Signal;HPM_P1;HPM_P2
2023/06/26 00:01:29;;;;;;;3.00;2.53;;;;;;;16.43;100.00;90804.94;5095083;28;20043;-64
2023/06/26 00:03:55;;;;;;;3.05;2.00;;;;;;;16.44;100.00;90801.13;5094867;28;20490;-64
2023/06/26 00:06:20;;;;;;;7.18;2.05;;;;;;;16.35;100.00;90802.41;5095105;28;20035;-65
2023/06/26 00:08:46;;;;;;;1.50;1.35;;;;;;;16.31;100.00;90801.56;5094879;28;20016;-65
2023/06/26 00:11:11;;;;;;;8.52;3.58;;;;;;;16.32;100.00;90797.72;5094865;28;20055;-65
2023/06/26 00:13:37;;;;;;;2.03;1.88;;;;;;;16.32;100.00;90795.06;5094710;28;20024;-65
2023/06/26 00:16:03;;;;;;;1.67;1.58;;;;;;;16.27;100.00;90798.78;5094962;28;20032;-65
2023/06/26 00:18:29;;;;;;;1.13;1.13;;;;;;;16.22;100.00;90799.03;5094709;28;20123;-65
2023/06/26 00:20:54;;;;;;;1.63;1.50;;;;;;;16.19;100.00;90799.72;5094699;28;20442;-65
2023/06/26 00:23:19;;;;;;;1.80;1.70;;;;;;;16.10;100.00;90793.75;5095127;28;20020;-65
2023/06/26 00:25:45;;;;;;;2.05;1.95;;;;;;;16.01;100.00;90809.22;5094928;28;20045;-65
2023/06/26 00:28:10;;;;;;;2.05;1.80;;;;;;;16.01;100.00;90798.50;5094602;28;20401;-65
2023/06/26 00:30:36;;;;;;;2.45;2.13;;;;;;;16.08;100.00;90804.81;5094679;28;20063;-65
2023/06/26 00:33:01;;;;;;;2.30;2.20;;;;;;;16.19;100.00;90805.09;5094533;28;20106;-65
2023/06/26 00:35:27;;;;;;;3.80;2.38;;;;;;;16.28;100.00;90808.38;5094491;28;20028;-65
2023/06/26 00:37:52;;;;;;;2.38;2.17;;;;;;;16.30;100.00;90808.81;5094653;28;20039;-65
2023/06/26 00:40:17;;;;;;;1.63;1.52;;;;;;;16.31;100.00;90813.06;5094608;28;20035;-65
2023/06/26 00:42:43;;;;;;;4.25;2.13;;;;;;;16.23;100.00;90807.84;5094365;28;20036;-65
2023/06/26 00:45:08;;;;;;;5.38;2.55;;;;;;;16.18;100.00;90809.69;5094295;28;20024;-65
2023/06/26 00:47:34;;;;;;;1.63;1.52;;;;;;;16.12;100.00;90804.91;5094512;28;20024;-65
2023/06/26 00:50:00;;;;;;;3.35;2.35;;;;;;;16.18;100.00;90806.22;5094332;28;20020;-65
2023/06/26 00:52:25;;;;;;;3.80;2.95;;;;;;;16.27;100.00;90795.31;5094000;28;20499;-65
2023/06/26 00:54:52;;;;;;;1.50;1.40;;;;;;;16.36;100.00;90803.97;5093844;28;20056;-65
2023/06/26 00:57:18;;;;;;;2.17;1.98;;;;;;;16.37;100.00;90800.94;5093708;28;20046;-65
2023/06/26 00:59:43;;;;;;;4.15;1.45;;;;;;;16.38;100.00;90812.44;5094025;28;20035;-65
2023/06/26 01:02:09;;;;;;;2.30;2.20;;;;;;;16.36;100.00;90804.75;5093820;28;20455;-65
2023/06/26 01:04:35;;;;;;;2.00;1.90;;;;;;;16.40;100.00;90800.22;5093695;28;20044;-65
2023/06/26 01:07:02;;;;;;;2.03;1.92;;;;;;;16.39;100.00;90804.03;5093913;28;20026;-64
2023/06/26 01:09:28;;;;;;;2.50;2.30;;;;;;;16.31;100.00;90796.97;5093857;28;20039;-65
2023/06/26 01:11:54;;;;;;;3.10;2.28;;;;;;;16.31;100.00;90796.97;5093854;28;20043;-65
2023/06/26 01:14:20;;;;;;;4.53;2.15;;;;;;;16.39;100.00;90798.69;5093618;28;20436;-65
2023/06/26 01:16:47;;;;;;;2.63;2.35;;;;;;;16.44;100.00;90806.50;5093917;28;20489;-65
2023/06/26 01:19:39;;;;;;;2.95;1.58;;;;;;;16.44;100.00;90798.44;5093555;28;20577;-65
2023/06/26 01:22:44;;;;;;;3.33;1.63;;;;;;;16.38;100.00;90791.75;5088758;28;20123;-65
2023/06/26 01:25:23;;;;;;;2.40;1.83;;;;;;;16.35;100.00;90803.19;5093755;28;20028;-65
2023/06/26 01:27:52;;;;;;;3.75;2.78;;;;;;;16.29;100.00;90799.22;5093425;28;20105;-65
2023/06/26 01:30:19;;;;;;;5.88;2.85;;;;;;;16.11;100.00;90801.44;5093588;28;20032;-65
2023/06/26 01:32:45;;;;;;;5.10;2.38;;;;;;;16.08;100.00;90787.91;5093497;28;20020;-65
2023/06/26 01:35:12;;;;;;;0.80;0.80;;;;;;;16.08;100.00;90798.66;5093438;28;20028;-65
2023/06/26 01:37:37;;;;;;;1.80;1.70;;;;;;;16.06;100.00;90792.84;5093166;28;20042;-65
2023/06/26 01:40:05;;;;;;;3.42;2.15;;;;;;;16.08;100.00;90793.28;5093312;28;20032;-65
2023/06/26 01:42:32;;;;;;;1.85;1.75;;;;;;;16.09;100.00;90789.47;5093112;28;20047;-65
2023/06/26 01:45:03;;;;;;;4.60;2.35;;;;;;;16.26;100.00;90783.03;5093219;28;20016;-65
2023/06/26 01:47:32;;;;;;;1.92;1.77;;;;;;;16.34;100.00;90782.84;5093168;28;20115;-65
2023/06/26 01:50:12;;;;;;;2.90;1.95;;;;;;;16.39;100.00;90784.47;5092961;28;20036;-65
2023/06/26 01:52:56;;;;;;;2.70;2.50;;;;;;;16.35;100.00;90775.56;5093080;28;20024;-65
2023/06/26 01:56:00;;;;;;;2.53;2.33;;;;;;;16.39;100.00;90771.81;5093006;28;20024;-65
2023/06/26 01:58:27;;;;;;;0.90;0.90;;;;;;;16.37;100.00;90768.72;5072001;28;20032;-65
2023/06/26 02:00:53;;;;;;;1.60;1.50;;;;;;;16.41;100.00;90771.47;5093117;28;20047;-65
2023/06/26 02:03:20;;;;;;;3.17;2.97;;;;;;;16.33;100.00;90767.84;5092623;28;20083;-65
2023/06/26 02:05:45;;;;;;;2.20;1.55;;;;;;;16.30;100.00;90773.16;5092636;28;20552;-65
2023/06/26 02:08:14;;;;;;;3.28;2.65;;;;;;;16.22;100.00;90772.19;5092204;28;20066;-65
2023/06/26 02:10:39;;;;;;;1.67;1.58;;;;;;;16.17;100.00;90764.41;5093150;28;20027;-65
2023/06/26 02:13:05;;;;;;;2.72;1.25;;;;;;;16.15;100.00;90770.09;5074236;28;20032;-65
2023/06/26 02:15:30;;;;;;;1.50;1.40;;;;;;;16.05;100.00;90756.41;5092539;28;20110;-65
2023/06/26 02:17:55;;;;;;;1.10;1.08;;;;;;;15.94;100.00;90758.84;5092600;28;20119;-65
2023/06/26 02:20:21;;;;;;;3.08;2.45;;;;;;;15.87;100.00;90756.75;5090692;28;20390;-63
2023/06/26 02:22:46;;;;;;;5.47;3.20;;;;;;;15.83;100.00;90763.94;5072221;28;20112;-63
2023/06/26 02:25:12;;;;;;;4.32;3.88;;;;;;;15.81;100.00;90762.72;5072414;28;20452;-63
2023/06/26 02:27:38;;;;;;;3.25;2.17;;;;;;;15.75;100.00;90759.50;5072405;28;20532;-64
2023/06/26 02:30:04;;;;;;;2.97;2.22;;;;;;;15.76;100.00;90753.00;5072134;28;20020;-64
2023/06/26 02:32:29;;;;;;;2.17;2.05;;;;;;;15.71;100.00;90747.13;5072200;28;20711;-64
2023/06/26 02:34:55;;;;;;;2.00;1.90;;;;;;;15.74;100.00;90754.47;5072215;28;20012;-64
2023/06/26 02:37:20;;;;;;;2.03;1.85;;;;;;;15.76;100.00;90749.53;5072098;28;20419;-63
2023/06/26 02:39:45;;;;;;;2.35;2.22;;;;;;;15.72;100.00;90754.81;5072235;28;20062;-63
2023/06/26 02:42:11;;;;;;;2.50;1.95;;;;;;;15.67;100.00;90754.31;5071795;28;20410;-64
2023/06/26 02:44:37;;;;;;;7.18;2.83;;;;;;;15.61;100.00;90748.38;5071831;28;20036;-63
2023/06/26 02:47:03;;;;;;;3.08;2.60;;;;;;;15.57;100.00;90750.19;5072071;28;20032;-63
2023/06/26 02:49:28;;;;;;;2.13;2.03;;;;;;;15.53;100.00;90746.63;5072079;28;20437;-64
2023/06/26 02:54:27;;;;;;;2.85;2.65;;;;;;;15.51;100.00;90743.50;5030392;28;20054;-63
2023/06/26 02:56:52;;;;;;;3.03;2.08;;;;;;;15.53;100.00;90752.00;5031868;28;20083;-64
2023/06/26 02:59:17;;;;;;;3.78;2.08;;;;;;;15.52;100.00;90751.22;5032205;28;20037;-64
2023/06/26 03:01:43;;;;;;;1.67;1.58;;;;;;;15.47;100.00;90756.81;5032125;28;20030;-63
2023/06/26 03:04:09;;;;;;;1.58;1.52;;;;;;;15.47;100.00;90762.19;5031730;28;20071;-64
2023/06/26 03:06:34;;;;;;;2.60;2.40;;;;;;;15.49;100.00;90756.50;5032066;28;20036;-64
2023/06/26 03:08:59;;;;;;;1.42;1.33;;;;;;;15.47;100.00;90762.19;5031750;28;20517;-64
2023/06/26 03:11:25;;;;;;;2.42;1.65;;;;;;;15.47;100.00;90764.88;5031813;28;20036;-64
2023/06/26 03:13:50;;;;;;;3.03;1.77;;;;;;;15.42;100.00;90764.31;5031562;28;20034;-64
2023/06/26 03:16:15;;;;;;;2.78;1.60;;;;;;;15.45;100.00;90767.09;5031672;28;20078;-63
2023/06/26 03:18:41;;;;;;;1.80;1.50;;;;;;;15.45;100.00;90771.66;5031883;28;20112;-63
2023/06/26 03:21:09;;;;;;;2.08;1.98;;;;;;;15.48;100.00;90771.00;5035160;28;20414;-63
2023/06/26 03:23:34;;;;;;;3.20;2.85;;;;;;;15.52;100.00;90780.72;5035919;28;20057;-63
2023/06/26 03:25:59;;;;;;;4.15;2.78;;;;;;;15.57;100.00;90777.78;5035651;28;20134;-63
2023/06/26 03:28:25;;;;;;;2.55;2.35;;;;;;;15.65;100.00;90776.09;5035530;28;20045;-63
2023/06/26 03:30:50;;;;;;;5.25;1.63;;;;;;;15.76;100.00;90771.78;5035489;28;20544;-63
2023/06/26 03:33:16;;;;;;;3.42;1.95;;;;;;;15.81;100.00;90779.59;5035240;28;20344;-64
2023/06/26 03:35:41;;;;;;;2.75;2.30;;;;;;;15.89;100.00;90772.50;5035652;28;20037;-64
2023/06/26 03:38:06;;;;;;;3.58;2.08;;;;;;;15.93;100.00;90775.25;5035621;28;20034;-64
2023/06/26 03:40:32;;;;;;;1.75;1.65;;;;;;;16.15;100.00;90772.78;5035312;28;20025;-64
2023/06/26 03:42:57;;;;;;;4.30;3.42;;;;;;;16.40;100.00;90778.75;5035218;28;20107;-64
2023/06/26 03:45:22;;;;;;;1.92;1.83;;;;;;;16.58;100.00;90779.19;5035594;28;20040;-64
2023/06/26 03:47:49;;;;;;;3.58;3.28;;;;;;;16.67;100.00;90787.09;5035460;28;20021;-64
2023/06/26 03:50:18;;;;;;;1.58;1.48;;;;;;;16.95;100.00;90781.59;5035310;28;20076;-64
2023/06/26 03:52:43;;;;;;;2.53;2.35;;;;;;;17.17;100.00;90786.28;5034941;28;20049;-64
2023/06/26 03:55:08;;;;;;;2.15;2.00;;;;;;;17.39;100.00;90784.84;5035021;28;20041;-64
2023/06/26 03:57:34;;;;;;;2.75;2.08;;;;;;;17.45;100.00;90785.34;5035179;28;20036;-64
2023/06/26 03:59:59;;;;;;;2.70;2.47;;;;;;;17.60;100.00;90784.47;5035557;28;20033;-64
2023/06/26 04:02:25;;;;;;;3.00;2.42;;;;;;;17.60;100.00;90781.78;5034913;28;20022;-64
2023/06/26 04:04:52;;;;;;;5.38;2.47;;;;;;;17.67;100.00;90784.59;5034877;28;20037;-64
2023/06/26 04:07:18;;;;;;;7.63;4.18;;;;;;;17.51;100.00;90781.22;5017096;28;20549;-64
2023/06/26 04:09:43;;;;;;;2.22;2.10;;;;;;;17.42;100.00;90769.91;5034698;28;20041;-64
2023/06/26 04:12:09;;;;;;;5.40;3.70;;;;;;;17.46;100.00;90779.59;5034420;28;20039;-64
2023/06/26 04:14:34;;;;;;;6.25;3.20;;;;;;;17.41;100.00;90777.19;5034958;28;20559;-64
2023/06/26 04:17:01;;;;;;;3.55;2.50;;;;;;;17.30;100.00;90781.56;5034872;28;20018;-64
2023/06/26 04:19:27;;;;;;;8.10;3.53;;;;;;;17.36;100.00;90774.78;5034827;28;20029;-64
2023/06/26 04:21:52;;;;;;;2.53;2.33;;;;;;;17.48;100.00;90780.00;5034420;28;20469;-64
2023/06/26 04:24:18;;;;;;;3.42;3.13;;;;;;;17.25;100.00;90782.63;5034767;28;20036;-64
2023/06/26 04:26:45;;;;;;;3.35;2.92;;;;;;;17.67;100.00;90776.53;5034437;28;20075;-64
2023/06/26 04:29:10;;;;;;;3.63;2.88;;;;;;;17.94;100.00;90774.78;5034394;28;20403;-64
2023/06/26 04:31:36;;;;;;;5.25;3.45;;;;;;;17.66;100.00;90781.13;5033654;28;20029;-64
2023/06/26 04:34:01;;;;;;;3.17;2.65;;;;;;;17.83;100.00;90781.88;5034203;28;20026;-64
2023/06/26 04:36:28;;;;;;;1.98;1.88;;;;;;;17.76;100.00;90777.13;5034612;28;20548;-64
2023/06/26 04:38:56;;;;;;;7.80;3.17;;;;;;;17.78;100.00;90784.84;5034292;28;20033;-64
2023/06/26 04:41:22;;;;;;;2.10;1.85;;;;;;;17.83;100.00;90782.66;5034327;28;20030;-64
2023/06/26 04:43:47;;;;;;;5.15;2.53;;;;;;;18.22;100.00;90780.69;5034451;28;20033;-64
2023/06/26 04:46:12;;;;;;;2.03;1.92;;;;;;;18.68;100.00;90788.00;5034453;28;20032;-64
2023/06/26 04:48:38;;;;;;;3.58;3.33;;;;;;;19.37;100.00;90783.22;5034322;28;20490;-64
2023/06/26 04:51:03;;;;;;;5.22;2.63;;;;;;;19.79;100.00;90777.63;5034162;28;20035;-64
2023/06/26 04:53:29;;;;;;;2.80;2.60;;;;;;;20.24;100.00;90781.19;5033866;28;20521;-64
2023/06/26 04:55:54;;;;;;;3.25;2.90;;;;;;;20.50;100.00;90781.06;5034075;28;20030;-64
2023/06/26 04:58:20;;;;;;;3.35;2.65;;;;;;;20.52;100.00;90776.09;5034226;28;20031;-64
2023/06/26 05:00:45;;;;;;;1.73;1.63;;;;;;;20.18;100.00;90779.97;5033846;28;20025;-64
2023/06/26 05:03:16;;;;;;;4.35;4.05;;;;;;;20.08;100.00;90780.63;5033815;28;20075;-64
2023/06/26 05:05:42;;;;;;;2.20;2.00;;;;;;;20.19;100.00;90781.50;5033965;28;20032;-64
2023/06/26 05:08:21;;;;;;;2.75;2.35;;;;;;;19.79;100.00;90784.94;5033825;28;20033;-64
2023/06/26 05:10:46;;;;;;;6.93;2.60;;;;;;;19.33;100.00;90788.56;5033876;28;20474;-64
2023/06/26 05:13:15;;;;;;;3.22;2.22;;;;;;;18.92;100.00;90779.50;5033430;28;20075;-64
2023/06/26 05:15:41;;;;;;;6.90;3.88;;;;;;;19.01;100.00;90780.03;5033498;28;20037;-64
2023/06/26 05:18:07;;;;;;;1.90;1.80;;;;;;;18.77;100.00;90783.91;5033606;28;20025;-64
2023/06/26 05:20:34;;;;;;;6.07;4.60;;;;;;;18.84;100.00;90778.63;5033677;28;20022;-63
2023/06/26 05:23:01;;;;;;;13.55;4.65;;;;;;;18.87;100.00;90782.53;5033437;28;20029;-64
2023/06/26 05:25:29;;;;;;;6.38;3.65;;;;;;;19.10;100.00;90772.47;5033393;28;20152;-63
2023/06/26 05:27:55;;;;;;;10.00;3.58;;;;;;;19.47;100.00;90779.13;5033582;28;20109;-64
2023/06/26 05:30:20;;;;;;;2.95;2.75;;;;;;;19.83;100.00;90778.44;5033922;28;20032;-64
2023/06/26 05:32:47;;;;;;;4.03;2.65;;;;;;;20.06;100.00;90782.94;5033557;28;20033;-64
2023/06/26 05:35:13;;;;;;;6.05;4.18;;;;;;;20.07;100.00;90781.78;5033237;28;20025;-66
2023/06/26 05:37:40;;;;;;;2.67;2.58;;;;;;;19.85;100.00;90781.53;5033513;28;20038;-66
2023/06/26 05:40:06;;;;;;;2.42;2.33;;;;;;;19.73;100.00;90784.50;5033498;28;20549;-65
2023/06/26 05:42:32;;;;;;;2.60;2.42;;;;;;;19.77;100.00;90790.72;5032838;28;20041;-65
2023/06/26 05:44:57;;;;;;;6.65;3.10;;;;;;;19.62;100.00;90802.47;5032804;28;20030;-65
2023/06/26 05:47:23;;;;;;;4.40;3.67;;;;;;;19.57;100.00;90800.09;5033038;28;20109;-65
2023/06/26 05:49:49;;;;;;;3.38;3.10;;;;;;;19.50;100.00;90806.13;5033179;28;20103;-65
2023/06/26 05:52:14;;;;;;;2.13;2.00;;;;;;;19.44;100.00;90796.81;5032981;28;20029;-65
2023/06/26 05:54:40;;;;;;;6.55;4.07;;;;;;;19.52;100.00;90800.38;5033484;28;20487;-65
2023/06/26 05:57:06;;;;;;;6.15;3.92;;;;;;;19.45;100.00;90801.06;5033118;28;20029;-65
2023/06/26 05:59:32;;;;;;;2.95;1.88;;;;;;;19.36;100.00;90798.63;5033425;28;20380;-65
2023/06/26 06:01:58;;;;;;;3.80;3.03;;;;;;;19.51;100.00;90798.81;5033311;28;20041;-65
2023/06/26 06:04:23;;;;;;;3.17;2.65;;;;;;;19.58;100.00;90807.06;5033334;28;20025;-65
2023/06/26 06:06:49;;;;;;;4.68;4.07;;;;;;;19.82;100.00;90795.78;5032974;28;20094;-65
2023/06/26 06:09:15;;;;;;;5.28;3.30;;;;;;;19.77;100.00;90804.22;5032663;28;20036;-66
2023/06/26 06:11:40;;;;;;;16.65;3.92;;;;;;;19.82;100.00;90798.47;5032822;28;20041;-66
2023/06/26 06:14:06;;;;;;;3.33;2.85;;;;;;;19.82;100.00;90808.50;5032715;28;20025;-65
2023/06/26 06:16:31;;;;;;;5.80;3.85;;;;;;;19.79;100.00;90801.13;5032561;28;20037;-65
2023/06/26 06:18:57;;;;;;;2.50;2.30;;;;;;;19.73;100.00;90800.69;5032788;28;20029;-65
2023/06/26 06:21:22;;;;;;;3.97;2.83;;;;;;;19.81;100.00;90812.34;5032565;28;20041;-65
2023/06/26 06:23:47;;;;;;;3.28;3.08;;;;;;;19.45;100.00;90804.53;5032266;28;20022;-65
2023/06/26 06:26:13;;;;;;;2.67;2.47;;;;;;;19.48;100.00;90803.03;5032307;28;20112;-65
2023/06/26 06:28:39;;;;;;;4.68;3.35;;;;;;;19.48;100.00;90805.72;5032454;28;20029;-65
2023/06/26 06:31:04;;;;;;;2.60;2.40;;;;;;;21.32;100.00;90800.69;5032502;28;20039;-65
2023/06/26 06:33:30;;;;;;;7.30;4.28;;;;;;;21.29;100.00;90808.75;5032081;28;20018;-65
2023/06/26 06:35:55;;;;;;;3.97;3.40;;;;;;;21.10;100.00;90810.53;5032241;28;20051;-65
2023/06/26 06:38:20;;;;;;;2.05;1.92;;;;;;;21.04;100.00;90809.34;5032076;28;20044;-65
2023/06/26 06:40:46;;;;;;;3.80;3.15;;;;;;;21.09;100.00;90822.50;5032331;28;20088;-65
2023/06/26 06:43:11;;;;;;;6.50;3.97;;;;;;;23.67;100.00;90808.59;5031980;28;20032;-65
2023/06/26 06:45:37;;;;;;;2.85;2.20;;;;;;;26.48;100.00;90803.88;5032292;28;20099;-65
2023/06/26 06:48:04;;;;;;;2.92;1.92;;;;;;;26.71;100.00;90798.50;5031995;28;20049;-65
2023/06/26 06:50:29;;;;;;;2.85;2.65;;;;;;;26.31;100.00;90797.44;5032174;28;20036;-66
2023/06/26 06:52:54;;;;;;;2.00;1.77;;;;;;;25.25;100.00;90805.50;5031828;28;20049;-65
2023/06/26 06:55:20;;;;;;;2.80;2.50;;;;;;;24.55;100.00;90799.34;5031815;28;20079;-65
2023/06/26 06:57:45;;;;;;;6.28;4.13;;;;;;;25.87;100.00;90806.50;5032153;28;20021;-65
2023/06/26 07:00:14;;;;;;;2.15;2.05;;;;;;;27.81;100.00;90806.22;5032065;28;20032;-65
2023/06/26 07:02:41;;;;;;;2.47;2.13;;;;;;;25.17;100.00;90806.72;5032006;28;20021;-65
2023/06/26 07:05:09;;;;;;;3.17;2.63;;;;;;;24.39;100.00;90801.78;5031759;28;20533;-65
2023/06/26 07:07:36;;;;;;;3.22;2.15;;;;;;;23.87;100.00;90805.06;5032110;28;20036;-65
2023/06/26 07:10:03;;;;;;;2.47;2.20;;;;;;;23.47;100.00;90800.84;5031862;28;20116;-65
2023/06/26 07:12:29;;;;;;;5.75;2.65;;;;;;;22.70;100.00;90810.50;5031730;28;20064;-65
2023/06/26 07:14:56;;;;;;;2.58;2.38;;;;;;;22.44;100.00;90814.34;5031926;28;20467;-65
2023/06/26 07:17:21;;;;;;;2.10;1.98;;;;;;;21.48;100.00;90811.22;5031751;28;20435;-65
2023/06/26 07:19:47;;;;;;;2.53;2.33;;;;;;;21.02;100.00;90819.75;5031729;28;20037;-65
2023/06/26 07:22:13;;;;;;;3.75;3.45;;;;;;;20.72;100.00;90813.72;5031555;28;20025;-65
2023/06/26 07:24:38;;;;;;;3.47;2.95;;;;;;;21.10;100.00;90815.94;5031786;28;20029;-65
2023/06/26 07:27:04;;;;;;;3.13;2.38;;;;;;;22.14;100.00;90803.81;5031457;28;20082;-65
2023/06/26 07:29:29;;;;;;;5.88;3.35;;;;;;;24.37;100.00;90810.31;5031597;28;20029;-65
2023/06/26 07:31:54;;;;;;;2.63;2.40;;;;;;;26.43;100.00;90810.56;5031330;28;20055;-65
2023/06/26 07:34:20;;;;;;;3.78;2.08;;;;;;;26.44;100.00;90812.13;5031519;28;20026;-65
2023/06/26 07:36:45;;;;;;;2.78;2.20;;;;;;;25.90;100.00;90809.22;5031796;28;20155;-65
2023/06/26 07:39:11;;;;;;;11.13;2.55;;;;;;;25.82;100.00;90810.44;5031592;28;20025;-65
2023/06/26 07:41:36;;;;;;;3.13;1.85;;;;;;;25.26;100.00;90801.63;5031514;28;20025;-66
2023/06/26 07:44:02;;;;;;;18.77;2.30;;;;;;;24.59;100.00;90802.03;5031433;28;20539;-65
2023/06/26 07:46:27;;;;;;;4.82;1.95;;;;;;;24.74;100.00;90804.28;5031475;28;20474;-66
2023/06/26 07:48:53;;;;;;;3.00;1.77;;;;;;;24.87;100.00;90806.53;5031395;28;20121;-66
2023/06/26 07:51:19;;;;;;;3.15;2.50;;;;;;;24.57;100.00;90804.38;5031553;28;20468;-66
2023/06/26 07:53:44;;;;;;;3.05;2.67;;;;;;;24.53;100.00;90796.25;5031086;28;20045;-66
2023/06/26 07:56:10;;;;;;;3.13;2.60;;;;;;;24.98;100.00;90809.97;5031594;28;20108;-65
2023/06/26 07:58:35;;;;;;;3.88;3.47;;;;;;;26.16;100.00;90804.25;5031323;28;20037;-65
2023/06/26 08:01:00;;;;;;;2.13;1.92;;;;;;;27.20;100.00;90811.88;5031263;28;20041;-66
2023/06/26 08:03:26;;;;;;;2.10;1.90;;;;;;;26.83;95.32;90808.09;5031327;28;20220;-65
2023/06/26 08:05:51;;;;;;;4.05;2.17;;;;;;;24.34;100.00;90823.94;5031324;28;20069;-65
2023/06/26 08:08:17;;;;;;;2.00;1.80;;;;;;;22.78;100.00;90836.50;5034464;28;20036;-65
2023/06/26 08:10:42;;;;;;;1.13;1.13;;;;;;;20.75;100.00;90832.66;5034839;28;20045;-65
2023/06/26 08:13:08;;;;;;;21.13;2.33;;;;;;;19.79;100.00;90838.94;5034597;28;20056;-65
2023/06/26 08:15:33;;;;;;;2.85;2.22;;;;;;;19.25;100.00;90848.16;5034676;28;20120;-65
2023/06/26 08:17:58;;;;;;;2.35;2.05;;;;;;;19.23;100.00;90845.84;5034620;28;20526;-65
2023/06/26 08:20:24;;;;;;;1.90;1.80;;;;;;;19.09;100.00;90845.63;5034552;28;20068;-65
2023/06/26 08:22:51;;;;;;;3.08;1.60;;;;;;;19.14;100.00;90838.03;5034397;28;20117;-65
2023/06/26 08:25:17;;;;;;;3.47;3.17;;;;;;;19.44;100.00;90829.97;5034355;28;20046;-65
2023/06/26 08:27:42;;;;;;;13.10;2.15;;;;;;;19.87;100.00;90835.94;5034412;28;20044;-65
2023/06/26 08:30:08;;;;;;;1.90;1.65;;;;;;;21.20;100.00;90841.53;5034503;28;20060;-65
2023/06/26 08:32:33;;;;;;;2.38;2.10;;;;;;;22.81;100.00;90841.13;5034151;28;20037;-65
2023/06/26 08:34:59;;;;;;;2.45;2.25;;;;;;;23.22;100.00;90847.03;5034384;28;20403;-65
2023/06/26 08:37:24;;;;;;;2.42;1.65;;;;;;;23.24;100.00;90847.41;5016524;28;20040;-65
2023/06/26 08:39:50;;;;;;;3.22;1.98;;;;;;;23.43;100.00;90837.31;5034301;28;20502;-65
2023/06/26 08:42:15;;;;;;;4.07;1.50;;;;;;;24.77;100.00;90836.16;5034364;28;20072;-65
2023/06/26 08:44:41;;;;;;;1.77;1.27;;;;;;;28.14;100.00;90838.03;5034224;28;20476;-65
2023/06/26 08:47:07;;;;;;;2.92;1.95;;;;;;;31.09;70.17;90832.25;5034514;28;20096;-66
2023/06/26 08:50:04;;;;;;;0.90;0.90;;;;;;;28.90;65.74;90832.66;5034188;28;20510;-65
2023/06/26 08:52:50;;;;;;;1.80;1.65;;;;;;;27.02;76.17;90834.78;4990095;28;20079;-66
2023/06/26 08:55:17;;;;;;;3.13;1.00;;;;;;;25.96;83.23;90821.22;5033376;28;20046;-65
2023/06/26 08:57:43;;;;;;;1.58;1.35;;;;;;;24.70;99.76;90829.97;5033919;28;20122;-65
2023/06/26 09:00:09;;;;;;;9.95;1.42;;;;;;;25.00;100.00;90829.41;5033844;28;20626;-65
2023/06/26 09:02:36;;;;;;;1.42;1.33;;;;;;;25.28;100.00;90829.22;5033677;28;20053;-65
2023/06/26 09:05:03;;;;;;;1.30;1.20;;;;;;;25.84;100.00;90829.91;5033672;28;20518;-65
2023/06/26 09:07:28;;;;;;;2.17;1.55;;;;;;;29.99;69.21;90831.31;5033806;28;20029;-65
2023/06/26 09:09:53;;;;;;;1.77;1.67;;;;;;;31.73;60.12;90828.34;5033694;28;20038;-65
2023/06/26 09:12:20;;;;;;;1.10;1.10;;;;;;;33.15;53.24;90821.88;5033706;28;20392;-65
2023/06/26 09:14:46;;;;;;;1.95;1.65;;;;;;;35.56;47.69;90812.94;5033551;28;20033;-65
2023/06/26 09:17:13;;;;;;;1.00;1.00;;;;;;;37.58;42.71;90815.03;5015602;28;20491;-66
2023/06/26 09:19:38;;;;;;;1.13;1.08;;;;;;;33.51;44.50;90819.31;5033693;28;20487;-66
2023/06/26 09:22:04;;;;;;;3.88;2.30;;;;;;;32.69;48.74;90816.81;5033308;28;20119;-66
2023/06/26 09:24:30;;;;;;;1.95;1.67;;;;;;;30.53;54.28;90810.69;5033281;28;20041;-65
2023/06/26 09:26:56;;;;;;;2.03;1.92;;;;;;;28.83;58.89;90808.91;5033365;28;20037;-66
2023/06/26 09:29:21;;;;;;;2.65;1.67;;;;;;;27.33;72.35;90812.84;5033335;28;20087;-65
2023/06/26 09:31:47;;;;;;;2.97;2.35;;;;;;;24.79;100.00;90814.75;5033168;28;20037;-65
2023/06/26 09:34:12;;;;;;;2.78;2.03;;;;;;;23.65;100.00;90813.63;5033110;28;20037;-65
2023/06/26 09:36:38;;;;;;;3.25;2.10;;;;;;;22.33;100.00;90822.44;5033188;28;20503;-65
2023/06/26 09:39:14;;;;;;;2.63;2.40;;;;;;;21.15;100.00;90829.13;5033412;28;20114;-65
2023/06/26 09:41:44;;;;;;;1.95;1.75;;;;;;;20.55;100.00;90817.81;5032994;28;20029;-65
2023/06/26 09:44:15;;;;;;;4.20;3.20;;;;;;;20.41;100.00;90818.44;5033325;28;20419;-65
2023/06/26 09:46:40;;;;;;;1.73;1.60;;;;;;;20.64;100.00;90819.03;5033236;28;20037;-66
2023/06/26 09:49:07;;;;;;;1.45;1.38;;;;;;;20.77;100.00;90814.13;4998947;28;20518;-66
2023/06/26 09:51:34;;;;;;;1.67;1.20;;;;;;;21.16;100.00;90817.16;5032695;28;20038;-66
2023/06/26 09:54:00;;;;;;;2.45;2.25;;;;;;;24.88;100.00;90816.25;5032580;28;20050;-66
2023/06/26 09:56:28;;;;;;;1.38;1.08;;;;;;;29.62;100.00;90812.63;5032763;28;20041;-66
2023/06/26 09:58:59;;;;;;;2.85;1.88;;;;;;;29.09;100.00;90811.91;5032815;28;20409;-66
2023/06/26 10:01:25;;;;;;;2.00;1.70;;;;;;;28.20;87.86;90814.47;5014712;28;20076;-64
2023/06/26 10:03:51;;;;;;;1.50;1.40;;;;;;;27.90;82.56;90817.38;5032901;28;20392;-64
2023/06/26 10:06:20;;;;;;;1.33;1.20;;;;;;;26.98;86.21;90811.38;5032556;28;20033;-66
2023/06/26 10:08:46;;;;;;;2.40;1.30;;;;;;;26.83;87.29;90811.59;5032853;28;20041;-66
2023/06/26 10:11:16;;;;;;;1.98;1.55;;;;;;;26.10;99.75;90814.06;5032682;28;20080;-66
2023/06/26 10:13:46;;;;;;;2.90;2.22;;;;;;;25.80;98.16;90812.81;5032439;28;20041;-66
2023/06/26 10:16:12;;;;;;;3.08;1.63;;;;;;;25.32;100.00;90821.00;5032474;28;20435;-66
2023/06/26 10:18:39;;;;;;;1.80;1.58;;;;;;;24.02;100.00;90827.53;5032591;28;20048;-66
2023/06/26 10:21:06;;;;;;;6.30;4.25;;;;;;;22.36;100.00;90816.25;5032341;28;20478;-66
2023/06/26 10:23:35;;;;;;;4.38;3.10;;;;;;;21.44;100.00;90808.47;5032217;28;20045;-66
2023/06/26 10:26:01;;;;;;;2.15;1.75;;;;;;;21.15;100.00;90804.78;5032295;28;20106;-66
2023/06/26 10:28:29;;;;;;;0.90;0.90;;;;;;;20.99;100.00;90817.81;5032459;28;20504;-66
2023/06/26 10:30:55;;;;;;;1.65;1.50;;;;;;;21.10;100.00;90818.66;5031618;28;20045;-66
2023/06/26 10:33:22;;;;;;;2.25;1.88;;;;;;;21.70;100.00;90814.81;5014283;28;20400;-66
2023/06/26 10:35:48;;;;;;;2.05;1.95;;;;;;;22.43;100.00;90807.38;5032082;28;20038;-66
2023/06/26 10:38:14;;;;;;;1.17;1.15;;;;;;;22.71;100.00;90810.13;5031980;28;20041;-66
2023/06/26 10:40:48;;;;;;;2.28;1.48;;;;;;;23.29;100.00;90813.66;5032198;28;20048;-66
2023/06/26 10:43:14;;;;;;;2.20;1.83;;;;;;;24.36;100.00;90810.72;5031926;28;20047;-64
2023/06/26 10:45:44;;;;;;;3.03;2.50;;;;;;;25.76;100.00;90803.91;5014452;28;20048;-66
2023/06/26 10:48:09;;;;;;;0.82;0.82;;;;;;;26.03;100.00;90808.66;5031969;28;20418;-66
2023/06/26 10:50:35;;;;;;;2.20;1.75;;;;;;;27.63;100.00;90809.22;5031793;28;20038;-64
2023/06/26 10:53:22;;;;;;;1.67;1.58;;;;;;;31.25;97.42;90799.19;5031527;28;20056;-64
2023/06/26 10:56:01;;;;;;;0.80;0.80;;;;;;;34.48;60.05;90808.66;5031662;28;20037;-64
2023/06/26 10:58:42;;;;;;;1.33;1.23;;;;;;;35.59;50.69;90806.47;5031759;28;20125;-64
2023/06/26 11:01:11;;;;;;;1.33;1.17;;;;;;;35.73;50.03;90808.56;5031545;28;20040;-64
2023/06/26 11:03:37;;;;;;;3.63;1.88;;;;;;;35.81;49.91;90811.75;5031748;28;20041;-64
2023/06/26 11:06:13;;;;;;;2.03;1.33;;;;;;;33.75;50.05;90802.97;5031682;28;20040;-64
2023/06/26 11:08:45;;;;;;;2.50;1.58;;;;;;;32.47;54.04;90803.03;5031814;28;20037;-65
2023/06/26 11:11:11;;;;;;;7.35;2.53;;;;;;;33.15;55.42;90800.59;5013815;28;20045;-65
2023/06/26 11:13:37;;;;;;;1.13;1.13;;;;;;;32.41;55.98;90802.06;5031771;28;20034;-65
2023/06/26 11:16:03;;;;;;;1.83;1.73;;;;;;;31.01;57.07;90795.97;5031563;28;20195;-65
2023/06/26 11:18:29;;;;;;;2.33;2.13;;;;;;;29.07;62.83;90792.38;5031861;28;20068;-65
2023/06/26 11:21:07;;;;;;;2.15;1.38;;;;;;;28.69;69.83;90795.50;5031523;28;20041;-64
2023/06/26 11:23:35;;;;;;;2.92;1.42;;;;;;;28.46;67.83;90792.88;5032009;28;20060;-64
2023/06/26 11:26:23;;;;;;;2.35;1.30;;;;;;;27.22;78.97;90795.84;5031523;28;20034;-64
2023/06/26 11:28:57;;;;;;;3.03;1.30;;;;;;;26.56;87.44;90791.69;5031468;28;20042;-64